KSPG

Albert Whitted Airport

St Petersburg, Florida, USA
METAR KSPG 241353Z 09007KT 10SM FEW023 29/27 A3004 RMK AO2 SLP171 T02940267
Observed Flight Rules
Jun-24 @ 13:53 UTC (an hour ago) Visual Flight Rules
Wind Visibility Clouds
90° at 7 knots 10 miles
  • Few at 2,300' AGL
Temperatures Readings
Current 29°C / 84°F
Dewpoint 27°C / 81°F
Humidity 89%
Altimeter 30.04" Hg
Pressure 1017.1 hPa
Elevation 2
METAR KSPG 241353Z 09007KT 10SM FEW023 29/27 A3004 RMK AO2 SLP171 T02940267
Observed Flight Rules
Jun-24 @ 13:53 UTC
(an hour ago)
VFR
Wind Visibility
90° at 7 knots 10 miles
Clouds
  • Few at 2,300' AGL
Temperature Dewpoint
29°C / 84°F 27°C / 81°F
Humidity Altimeter Pressure
89% 30.04" Hg 1017.1 hPa